createdAt,value
2023-04-16T00:01:22.329Z,77.25
2023-04-16T00:03:49.072Z,77.64
2023-04-16T00:06:15.705Z,77.64
2023-04-16T00:08:43.534Z,77.83
2023-04-16T00:11:09.988Z,77.56
2023-04-16T00:13:36.864Z,77.75
2023-04-16T00:16:03.289Z,78.19
2023-04-16T00:18:29.744Z,77.98
2023-04-16T00:20:56.390Z,79.30
2023-04-16T00:23:24.984Z,78.44
2023-04-16T00:25:51.741Z,78.77
2023-04-16T00:28:18.203Z,78.31
2023-04-16T00:30:44.665Z,78.54
2023-04-16T00:33:11.229Z,78.25
2023-04-16T00:35:37.765Z,78.38
2023-04-16T00:38:04.115Z,78.35
2023-04-16T00:40:30.799Z,78.10
2023-04-16T00:42:57.247Z,78.73
2023-04-16T00:45:23.745Z,78.36
2023-04-16T00:47:50.398Z,78.01
2023-04-16T00:50:19.180Z,78.26
2023-04-16T00:52:48.133Z,78.36
2023-04-16T00:55:17.622Z,78.56
2023-04-16T00:57:45.023Z,78.38
2023-04-16T01:00:12.169Z,79.08
2023-04-16T01:02:39.819Z,78.86
2023-04-16T01:05:06.801Z,79.10
2023-04-16T01:07:33.341Z,79.43
2023-04-16T01:09:59.817Z,79.57
2023-04-16T01:12:26.285Z,79.31
2023-04-16T01:14:52.921Z,78.62
2023-04-16T01:17:19.382Z,79.28
2023-04-16T01:19:45.950Z,79.49
2023-04-16T01:22:12.420Z,79.19
2023-04-16T01:24:40.482Z,78.91
2023-04-16T01:27:09.980Z,78.69
2023-04-16T01:29:36.605Z,79.29
2023-04-16T01:32:03.218Z,78.36
2023-04-16T01:34:35.868Z,78.47
2023-04-16T01:37:03.731Z,79.20
2023-04-16T01:39:30.368Z,80.02
2023-04-16T01:41:57.523Z,79.18
2023-04-16T01:44:23.940Z,79.76
2023-04-16T01:46:50.424Z,78.60
2023-04-16T01:49:16.918Z,78.36
2023-04-16T01:51:43.919Z,78.87
2023-04-16T01:54:10.520Z,79.51
2023-04-16T01:56:37.020Z,79.33
2023-04-16T01:59:03.464Z,79.32
2023-04-16T02:01:35.932Z,79.81
2023-04-16T02:04:03.205Z,79.43
2023-04-16T02:06:30.512Z,79.49
2023-04-16T02:08:56.929Z,78.93
2023-04-16T02:11:24.759Z,79.09
2023-04-16T02:13:51.199Z,80.06
2023-04-16T02:16:18.616Z,79.81
2023-04-16T02:18:50.354Z,79.47
2023-04-16T02:21:20.134Z,79.20
2023-04-16T02:23:47.857Z,79.26
2023-04-16T02:26:14.338Z,80.25
2023-04-16T02:28:41.406Z,79.94
2023-04-16T02:31:10.230Z,80.12
2023-04-16T02:33:41.761Z,79.83
2023-04-16T02:36:10.478Z,79.13
2023-04-16T02:38:37.511Z,79.63
2023-04-16T02:41:04.072Z,79.56
2023-04-16T02:43:30.581Z,79.45
2023-04-16T02:45:59.195Z,80.06
2023-04-16T02:48:25.742Z,80.02
2023-04-16T02:50:52.166Z,79.11
2023-04-16T02:53:19.170Z,79.61
2023-04-16T02:55:55.166Z,79.70
2023-04-16T02:58:23.960Z,79.73
2023-04-16T03:00:51.548Z,80.22
2023-04-16T03:03:18.397Z,80.22
2023-04-16T03:05:44.834Z,79.68
2023-04-16T03:08:11.441Z,79.60
2023-04-16T03:10:37.983Z,80.81
2023-04-16T03:13:05.077Z,80.56
2023-04-16T03:15:31.613Z,80.86
2023-04-16T03:17:58.148Z,80.40
2023-04-16T03:20:24.703Z,80.36
2023-04-16T03:22:52.569Z,80.45
2023-04-16T03:25:19.292Z,80.81
2023-04-16T03:27:45.706Z,79.58
2023-04-16T03:30:14.288Z,80.59
2023-04-16T03:32:41.343Z,80.78
2023-04-16T03:35:08.991Z,80.17
2023-04-16T03:37:37.081Z,80.25
2023-04-16T03:40:05.783Z,80.75
2023-04-16T03:42:32.348Z,80.70
2023-04-16T03:44:59.315Z,81.20
2023-04-16T03:47:26.295Z,81.04
2023-04-16T03:49:56.288Z,80.60
2023-04-16T03:52:22.706Z,81.53
2023-04-16T03:54:49.144Z,81.86
2023-04-16T03:57:27.096Z,81.88
2023-04-16T03:59:57.740Z,80.53
2023-04-16T04:02:27.194Z,81.30
2023-04-16T04:04:53.915Z,81.68
2023-04-16T04:07:20.476Z,81.70
2023-04-16T04:09:46.908Z,81.42
2023-04-16T04:12:14.847Z,82.40
2023-04-16T04:14:42.870Z,81.82
2023-04-16T04:17:09.354Z,82.08
2023-04-16T04:19:35.906Z,81.83
2023-04-16T04:22:03.482Z,82.13
2023-04-16T04:24:29.915Z,82.68
2023-04-16T04:26:57.506Z,82.84
2023-04-16T04:29:24.139Z,82.73
2023-04-16T04:31:50.756Z,82.94
2023-04-16T04:34:17.387Z,82.05
2023-04-16T04:36:44.198Z,82.62
2023-04-16T04:39:12.397Z,82.12
2023-04-16T04:41:40.801Z,82.92
2023-04-16T04:44:07.197Z,82.29
2023-04-16T04:46:33.911Z,83.07
2023-04-16T04:49:00.504Z,83.11
2023-04-16T04:51:27.062Z,83.20
2023-04-16T04:53:53.544Z,82.94
2023-04-16T04:56:20.837Z,83.04
2023-04-16T04:58:50.206Z,83.22
2023-04-16T05:01:19.914Z,82.68
2023-04-16T05:03:46.491Z,82.65
2023-04-16T05:06:12.993Z,83.00
2023-04-16T05:08:39.467Z,82.63
2023-04-16T05:11:06.005Z,82.19
2023-04-16T05:13:32.472Z,82.36
2023-04-16T05:15:59.614Z,82.73
2023-04-16T05:18:26.620Z,82.27
2023-04-16T05:20:53.094Z,83.46
2023-04-16T05:23:19.537Z,82.75
2023-04-16T05:25:45.964Z,82.34
2023-04-16T05:28:12.369Z,82.87
2023-04-16T05:30:38.857Z,83.08
2023-04-16T05:33:05.712Z,83.08
2023-04-16T05:35:32.153Z,83.68
2023-04-16T05:37:58.583Z,83.45
2023-04-16T05:40:25.035Z,83.25
2023-04-16T05:42:51.508Z,84.25
2023-04-16T05:45:17.938Z,83.41
2023-04-16T05:47:44.509Z,83.22
2023-04-16T05:50:11.146Z,83.53
2023-04-16T05:52:38.129Z,83.06
2023-04-16T05:55:05.402Z,83.24
2023-04-16T05:57:32.801Z,83.36
2023-04-16T05:59:59.264Z,83.50
2023-04-16T06:02:25.997Z,83.42
2023-04-16T06:04:52.488Z,83.17
2023-04-16T06:07:18.898Z,83.23
2023-04-16T06:09:45.666Z,83.58
2023-04-16T06:12:12.258Z,83.17
2023-04-16T06:14:38.646Z,84.25
2023-04-16T06:17:05.020Z,83.87
2023-04-16T06:19:31.377Z,83.98
2023-04-16T06:21:57.883Z,83.57
2023-04-16T06:24:24.372Z,83.57
2023-04-16T06:26:50.934Z,83.95
2023-04-16T06:29:17.307Z,83.76
2023-04-16T06:31:43.814Z,84.06
2023-04-16T06:34:10.566Z,84.05
2023-04-16T06:36:37.576Z,84.04
2023-04-16T06:39:04.139Z,83.56
2023-04-16T06:41:30.763Z,83.74
2023-04-16T06:43:57.171Z,83.74
2023-04-16T06:46:23.752Z,83.75
2023-04-16T06:48:50.408Z,83.17
2023-04-16T06:51:16.846Z,84.04
2023-04-16T06:53:43.337Z,83.85
2023-04-16T06:56:09.758Z,84.12
2023-04-16T06:58:36.303Z,83.56
2023-04-16T07:01:02.928Z,84.01
2023-04-16T07:03:29.505Z,83.74
2023-04-16T07:05:56.625Z,83.29
2023-04-16T07:08:23.069Z,84.05
2023-04-16T07:10:49.542Z,83.87
2023-04-16T07:13:16.052Z,84.44
2023-04-16T07:15:42.476Z,83.41
2023-04-16T07:18:09.391Z,84.04
2023-04-16T07:20:36.314Z,84.07
2023-04-16T07:23:02.730Z,84.21
2023-04-16T07:25:29.181Z,83.77
2023-04-16T07:27:55.609Z,83.49
2023-04-16T07:30:22.024Z,84.33
2023-04-16T07:32:48.540Z,84.09
2023-04-16T07:35:15.015Z,83.86
2023-04-16T07:37:41.522Z,83.54
2023-04-16T07:40:09.708Z,83.43
2023-04-16T07:42:36.211Z,84.02
2023-04-16T07:45:02.665Z,84.57
2023-04-16T07:47:29.082Z,83.91
2023-04-16T07:49:55.503Z,83.80
2023-04-16T07:52:21.884Z,84.25
2023-04-16T07:54:48.391Z,83.75
2023-04-16T07:57:14.810Z,83.91
2023-04-16T07:59:41.301Z,84.47
2023-04-16T08:02:13.411Z,83.62
2023-04-16T08:04:41.795Z,84.42
2023-04-16T08:07:08.500Z,84.69
2023-04-16T08:09:36.080Z,84.04
2023-04-16T08:12:03.361Z,84.38
2023-04-16T08:14:29.751Z,85.19
2023-04-16T08:16:56.420Z,84.46
2023-04-16T08:19:22.839Z,83.94
2023-04-16T08:21:49.290Z,84.42
2023-04-16T08:24:15.709Z,84.17
2023-04-16T08:26:42.088Z,84.20
2023-04-16T08:29:08.840Z,83.63
2023-04-16T08:31:35.450Z,84.91
2023-04-16T08:34:01.918Z,84.16
2023-04-16T08:36:28.386Z,84.27
2023-04-16T08:38:54.776Z,84.05
2023-04-16T08:41:22.054Z,84.51
2023-04-16T08:43:51.593Z,83.44
2023-04-16T08:46:22.681Z,83.99
2023-04-16T08:48:49.873Z,83.96
2023-04-16T08:51:18.634Z,83.81
2023-04-16T08:54:02.804Z,83.15
2023-04-16T08:56:31.642Z,83.12
2023-04-16T08:59:00.939Z,83.52
2023-04-16T09:01:28.173Z,83.62
2023-04-16T09:03:55.664Z,84.15
2023-04-16T09:06:22.456Z,84.22
2023-04-16T09:08:49.586Z,84.45
2023-04-16T09:11:18.278Z,83.57
2023-04-16T09:13:46.533Z,84.03
2023-04-16T09:16:14.095Z,83.81
2023-04-16T09:18:41.343Z,83.85
2023-04-16T09:21:10.740Z,83.95
2023-04-16T09:23:38.655Z,84.15
2023-04-16T09:26:05.954Z,83.83
2023-04-16T09:28:58.668Z,84.03
2023-04-16T09:31:25.319Z,83.55
2023-04-16T09:34:02.311Z,83.39
2023-04-16T09:36:28.966Z,83.43
2023-04-16T09:38:57.615Z,83.79
2023-04-16T09:41:27.254Z,82.96
2023-04-16T09:43:57.587Z,82.76
2023-04-16T09:46:25.604Z,82.72
2023-04-16T09:48:52.038Z,83.12
2023-04-16T09:51:18.632Z,83.55
2023-04-16T09:53:45.575Z,83.15
2023-04-16T09:56:12.946Z,83.24
2023-04-16T09:58:39.526Z,83.18
2023-04-16T10:01:07.306Z,83.32
2023-04-16T10:03:36.086Z,83.24
2023-04-16T10:06:18.472Z,83.06
2023-04-16T10:08:52.524Z,83.52
2023-04-16T10:11:20.422Z,83.72
2023-04-16T10:13:47.403Z,83.63
2023-04-16T10:16:14.005Z,83.43
2023-04-16T10:18:43.419Z,83.31
2023-04-16T10:21:15.298Z,83.64
2023-04-16T10:23:43.221Z,83.65
2023-04-16T10:26:09.758Z,83.45
2023-04-16T10:28:37.005Z,83.15
2023-04-16T10:31:07.362Z,83.08
2023-04-16T10:33:36.333Z,83.19
2023-04-16T10:36:14.492Z,83.16
2023-04-16T10:38:45.614Z,83.75
2023-04-16T10:41:12.307Z,83.28
2023-04-16T10:43:44.215Z,83.47
2023-04-16T10:46:31.310Z,82.92
2023-04-16T10:49:02.680Z,83.75
2023-04-16T10:51:36.442Z,83.50
2023-04-16T10:54:08.836Z,82.95
2023-04-16T10:56:36.935Z,83.77
2023-04-16T10:59:07.664Z,83.16
2023-04-16T11:01:41.742Z,83.67
2023-04-16T11:04:20.445Z,83.31
2023-04-16T11:07:16.418Z,83.09
2023-04-16T11:10:05.199Z,83.30
2023-04-16T11:12:40.355Z,83.36
2023-04-16T11:15:11.696Z,83.05
2023-04-16T11:17:40.430Z,82.37
2023-04-16T11:20:19.231Z,82.23
2023-04-16T11:22:54.848Z,82.32
2023-04-16T11:25:29.698Z,82.73
2023-04-16T11:27:58.664Z,83.01
2023-04-16T11:30:33.980Z,82.49
2023-04-16T11:33:04.702Z,82.54
2023-04-16T11:35:31.415Z,82.12
2023-04-16T11:37:58.502Z,82.35
2023-04-16T11:40:29.195Z,82.39
2023-04-16T11:42:55.660Z,82.69
2023-04-16T11:45:22.094Z,82.68
2023-04-16T11:47:55.151Z,82.49
2023-04-16T11:50:24.003Z,82.53
2023-04-16T11:52:52.293Z,82.28
2023-04-16T11:55:19.794Z,82.07
2023-04-16T11:57:46.288Z,82.51
2023-04-16T12:00:14.174Z,81.88
2023-04-16T12:02:51.722Z,81.81
2023-04-16T12:05:35.896Z,81.28
2023-04-16T12:08:07.178Z,81.86
2023-04-16T12:10:35.802Z,81.75
2023-04-16T12:13:12.654Z,81.51
2023-04-16T12:15:48.917Z,81.86
2023-04-16T12:18:16.581Z,81.13
2023-04-16T12:20:44.334Z,82.74
2023-04-16T12:23:22.143Z,81.31
2023-04-16T12:25:50.003Z,80.97
2023-04-16T12:28:27.651Z,80.81
2023-04-16T12:30:54.153Z,80.17
2023-04-16T12:33:21.170Z,80.49
2023-04-16T12:35:47.753Z,80.17
2023-04-16T12:38:15.317Z,79.81
2023-04-16T12:40:41.856Z,79.16
2023-04-16T12:43:10.443Z,79.03
2023-04-16T12:45:38.157Z,78.79
2023-04-16T12:48:04.852Z,79.57
2023-04-16T12:50:31.438Z,79.64
2023-04-16T12:52:58.139Z,79.77
2023-04-16T12:55:25.083Z,79.46
2023-04-16T12:57:52.936Z,79.01
2023-04-16T13:00:20.511Z,79.74
2023-04-16T13:02:47.384Z,79.21
2023-04-16T13:05:16.529Z,79.08
2023-04-16T13:07:43.107Z,78.75
2023-04-16T13:10:09.994Z,79.10
2023-04-16T13:12:36.662Z,79.10
2023-04-16T13:15:03.151Z,79.11
2023-04-16T13:17:29.603Z,78.19
2023-04-16T13:19:56.103Z,78.21
2023-04-16T13:22:22.569Z,78.11
2023-04-16T13:24:49.015Z,78.76
2023-04-16T13:27:16.816Z,78.57
2023-04-16T13:29:43.256Z,78.56
2023-04-16T13:32:09.643Z,79.93
2023-04-16T13:34:36.142Z,78.39
2023-04-16T13:37:02.508Z,76.31
2023-04-16T13:39:28.945Z,76.26
2023-04-16T13:41:55.479Z,76.35
2023-04-16T13:44:21.932Z,76.57
2023-04-16T13:46:48.323Z,77.29
2023-04-16T13:49:14.903Z,77.27
2023-04-16T13:51:44.617Z,77.61
2023-04-16T13:54:11.251Z,76.88
2023-04-16T13:56:37.833Z,77.48
2023-04-16T13:59:04.280Z,77.50
2023-04-16T14:01:30.900Z,77.78
2023-04-16T14:03:57.367Z,78.17
2023-04-16T14:06:23.819Z,78.09
2023-04-16T14:08:50.306Z,77.88
2023-04-16T14:11:16.726Z,78.34
2023-04-16T14:13:43.161Z,77.81
2023-04-16T14:16:09.544Z,77.79
2023-04-16T14:18:36.329Z,77.65
2023-04-16T14:21:02.810Z,77.61
2023-04-16T14:23:29.260Z,77.55
2023-04-16T14:25:56.107Z,77.28
2023-04-16T14:28:22.547Z,77.55
2023-04-16T14:30:48.948Z,77.33
2023-04-16T14:33:15.551Z,77.11
2023-04-16T14:35:41.994Z,76.89
2023-04-16T14:38:08.526Z,76.70
2023-04-16T14:40:35.203Z,76.86
2023-04-16T14:43:01.699Z,77.91
2023-04-16T14:45:29.928Z,77.89
2023-04-16T14:47:56.991Z,77.32
2023-04-16T14:50:23.543Z,77.93
2023-04-16T14:52:50.682Z,77.59
2023-04-16T14:55:17.162Z,77.73
2023-04-16T14:57:43.674Z,77.53
2023-04-16T15:00:11.869Z,76.87
2023-04-16T15:02:38.568Z,77.07
2023-04-16T15:05:05.528Z,77.53
2023-04-16T15:07:32.499Z,77.65
2023-04-16T15:09:58.974Z,77.44
2023-04-16T15:12:26.424Z,77.38
2023-04-16T15:14:52.825Z,77.07
2023-04-16T15:17:19.691Z,77.72
2023-04-16T15:19:46.439Z,77.77
2023-04-16T15:22:14.676Z,77.73
2023-04-16T15:24:41.146Z,77.92
2023-04-16T15:27:11.117Z,78.47
2023-04-16T15:29:38.272Z,78.51
2023-04-16T15:32:04.817Z,78.16
2023-04-16T15:34:31.274Z,77.73
2023-04-16T15:36:57.804Z,77.99
2023-04-16T15:39:24.176Z,77.66
2023-04-16T15:42:00.703Z,77.68
2023-04-16T15:44:28.110Z,78.14
2023-04-16T15:46:54.588Z,78.18
2023-04-16T15:49:20.974Z,77.65
2023-04-16T15:51:47.447Z,77.89
2023-04-16T15:54:13.972Z,77.56
2023-04-16T15:56:40.576Z,77.86
2023-04-16T15:59:06.949Z,77.00
2023-04-16T16:01:33.425Z,77.58
2023-04-16T16:04:07.145Z,77.44
2023-04-16T16:06:33.825Z,77.23
2023-04-16T16:09:00.325Z,77.14
2023-04-16T16:11:27.325Z,76.72
2023-04-16T16:13:53.791Z,76.82
2023-04-16T16:16:21.684Z,77.03
2023-04-16T16:18:48.291Z,77.04
2023-04-16T16:21:14.705Z,77.44
2023-04-16T16:23:41.234Z,77.41
2023-04-16T16:26:07.724Z,77.07
2023-04-16T16:28:37.404Z,76.93
2023-04-16T16:31:05.838Z,76.87
2023-04-16T16:33:32.429Z,76.97
2023-04-16T16:35:58.840Z,77.20
2023-04-16T16:38:25.720Z,77.69
2023-04-16T16:40:52.157Z,77.47
2023-04-16T16:43:18.513Z,77.91
2023-04-16T16:45:44.967Z,77.58
2023-04-16T16:48:11.383Z,77.47
2023-04-16T16:50:37.858Z,77.33
2023-04-16T16:53:04.451Z,77.71
2023-04-16T16:55:31.185Z,77.03
2023-04-16T16:57:58.412Z,76.93
2023-04-16T17:00:24.849Z,77.46
2023-04-16T17:02:52.059Z,78.43
2023-04-16T17:05:18.700Z,78.26
2023-04-16T17:07:45.783Z,78.12
2023-04-16T17:10:22.344Z,77.75
2023-04-16T17:12:50.408Z,77.33
2023-04-16T17:15:19.663Z,77.38
2023-04-16T17:17:47.869Z,77.81
2023-04-16T17:20:14.325Z,78.19
2023-04-16T17:22:40.855Z,77.62
2023-04-16T17:25:08.016Z,77.75
2023-04-16T17:27:34.767Z,77.91
2023-04-16T17:30:02.412Z,77.89
2023-04-16T17:32:30.037Z,78.11
2023-04-16T17:34:56.798Z,78.05
2023-04-16T17:37:23.481Z,78.10
2023-04-16T17:39:50.098Z,78.54
2023-04-16T17:42:17.008Z,78.39
2023-04-16T17:44:43.400Z,77.96
2023-04-16T17:47:10.048Z,79.36
2023-04-16T17:49:36.478Z,78.57
2023-04-16T17:52:03.030Z,78.72
2023-04-16T17:54:29.520Z,78.77
2023-04-16T17:56:57.553Z,78.87
2023-04-16T17:59:23.984Z,79.27
2023-04-16T18:01:50.551Z,78.33
2023-04-16T18:04:17.510Z,77.79
2023-04-16T18:06:44.304Z,78.11
2023-04-16T18:09:11.275Z,78.23
2023-04-16T18:11:38.052Z,78.85
2023-04-16T18:14:04.458Z,78.46
2023-04-16T18:16:30.951Z,78.75
2023-04-16T18:18:57.579Z,78.40
2023-04-16T18:21:23.986Z,78.59
2023-04-16T18:23:50.403Z,78.20
2023-04-16T18:26:20.462Z,78.17
2023-04-16T18:28:48.637Z,78.06
2023-04-16T18:31:15.333Z,78.90
2023-04-16T18:33:55.471Z,78.43
2023-04-16T18:36:23.590Z,78.18
2023-04-16T18:38:59.972Z,78.51
2023-04-16T18:41:29.027Z,78.54
2023-04-16T18:43:55.541Z,78.63
2023-04-16T18:46:22.105Z,78.11
2023-04-16T18:48:48.542Z,78.04
2023-04-16T18:51:16.275Z,78.30
2023-04-16T18:53:44.480Z,79.01
2023-04-16T18:56:11.576Z,79.45
2023-04-16T18:58:38.094Z,80.02
2023-04-16T19:01:05.236Z,79.26
2023-04-16T19:03:31.842Z,79.89
2023-04-16T19:05:58.371Z,79.77
2023-04-16T19:08:24.799Z,79.71
2023-04-16T19:10:51.292Z,79.59
2023-04-16T19:13:17.824Z,79.60
2023-04-16T19:15:44.251Z,79.57
2023-04-16T19:18:10.800Z,79.92
2023-04-16T19:20:37.739Z,80.21
2023-04-16T19:23:05.545Z,79.48
2023-04-16T19:25:32.362Z,79.15
2023-04-16T19:27:58.831Z,79.93
2023-04-16T19:30:25.574Z,79.55
2023-04-16T19:32:55.064Z,79.92
2023-04-16T19:35:21.965Z,79.85
2023-04-16T19:37:48.377Z,80.08
2023-04-16T19:40:14.868Z,79.82
2023-04-16T19:42:41.387Z,80.26
2023-04-16T19:45:08.084Z,80.17
2023-04-16T19:47:34.518Z,79.68
2023-04-16T19:50:00.949Z,79.84
2023-04-16T19:52:27.443Z,79.79
2023-04-16T19:54:53.846Z,79.03
2023-04-16T19:57:20.315Z,79.79
2023-04-16T19:59:46.763Z,79.73
2023-04-16T20:02:13.263Z,79.72
2023-04-16T20:04:39.732Z,79.04
2023-04-16T20:07:06.367Z,79.20
2023-04-16T20:09:32.878Z,78.22
2023-04-16T20:11:59.263Z,78.78
2023-04-16T20:14:25.877Z,79.35
2023-04-16T20:16:52.758Z,79.00
2023-04-16T20:19:19.494Z,79.59
2023-04-16T20:21:46.062Z,78.80
2023-04-16T20:24:12.554Z,79.00
2023-04-16T20:26:38.946Z,78.53
2023-04-16T20:29:05.398Z,78.34
2023-04-16T20:31:31.845Z,79.34
2023-04-16T20:33:58.237Z,78.54
2023-04-16T20:36:24.648Z,79.30
2023-04-16T20:38:53.811Z,79.63
2023-04-16T20:41:21.262Z,78.86
2023-04-16T20:43:50.176Z,79.57
2023-04-16T20:46:17.622Z,79.67
2023-04-16T20:48:44.434Z,79.23
2023-04-16T20:51:10.912Z,78.90
2023-04-16T20:53:37.712Z,78.46
2023-04-16T20:56:04.413Z,79.21
2023-04-16T20:58:30.815Z,79.79
2023-04-16T21:00:57.804Z,80.44
2023-04-16T21:03:24.691Z,79.73
2023-04-16T21:05:55.642Z,79.99
2023-04-16T21:08:23.233Z,80.22
2023-04-16T21:10:50.368Z,80.56
2023-04-16T21:13:16.987Z,80.50
2023-04-16T21:15:44.962Z,79.81
2023-04-16T21:18:12.023Z,80.58
2023-04-16T21:20:39.402Z,79.99
2023-04-16T21:23:06.319Z,80.07
2023-04-16T21:25:33.509Z,80.19
2023-04-16T21:28:00.034Z,80.04
2023-04-16T21:30:26.420Z,79.82
2023-04-16T21:32:52.905Z,80.11
2023-04-16T21:35:19.529Z,80.32
2023-04-16T21:37:46.034Z,79.89
2023-04-16T21:40:12.524Z,80.81
2023-04-16T21:42:42.407Z,80.16
2023-04-16T21:45:10.302Z,80.83
2023-04-16T21:47:37.469Z,80.66
2023-04-16T21:50:04.297Z,81.17
2023-04-16T21:52:32.733Z,81.58
2023-04-16T21:54:59.977Z,81.72
2023-04-16T21:57:26.387Z,81.68
2023-04-16T21:59:52.831Z,81.10
2023-04-16T22:02:19.379Z,81.41
2023-04-16T22:04:45.879Z,80.95
2023-04-16T22:07:12.318Z,80.96
2023-04-16T22:09:38.861Z,81.09
2023-04-16T22:12:11.909Z,80.74
2023-04-16T22:14:44.109Z,81.06
2023-04-16T22:17:17.069Z,81.94
2023-04-16T22:19:44.509Z,81.33
2023-04-16T22:22:11.132Z,81.39
2023-04-16T22:24:37.541Z,81.30
2023-04-16T22:27:04.154Z,82.34
2023-04-16T22:29:30.568Z,82.15
2023-04-16T22:31:57.275Z,81.34
2023-04-16T22:34:23.738Z,81.42
2023-04-16T22:36:50.172Z,82.20
2023-04-16T22:39:16.610Z,81.56
2023-04-16T22:41:42.960Z,81.41
2023-04-16T22:44:09.418Z,81.46
2023-04-16T22:46:36.215Z,81.68
2023-04-16T22:49:02.778Z,80.98
2023-04-16T22:51:30.054Z,81.35
2023-04-16T22:53:56.465Z,81.34
2023-04-16T22:56:28.411Z,81.50
2023-04-16T22:58:54.956Z,82.06
2023-04-16T23:01:21.593Z,82.06
2023-04-16T23:03:48.188Z,82.33
2023-04-16T23:06:14.709Z,81.74
2023-04-16T23:08:41.072Z,82.64
2023-04-16T23:11:07.475Z,82.20
2023-04-16T23:13:33.953Z,82.71
2023-04-16T23:16:00.541Z,82.98
2023-04-16T23:18:27.087Z,83.13
2023-04-16T23:20:53.833Z,82.61
2023-04-16T23:23:20.413Z,81.76
2023-04-16T23:25:46.840Z,81.68
2023-04-16T23:28:13.330Z,82.79
2023-04-16T23:30:39.714Z,82.71
2023-04-16T23:33:06.595Z,82.70
2023-04-16T23:35:33.159Z,83.01
2023-04-16T23:37:59.534Z,83.64
2023-04-16T23:40:26.065Z,83.33
2023-04-16T23:42:52.483Z,83.97
2023-04-16T23:45:19.006Z,84.24
2023-04-16T23:47:45.720Z,84.60
2023-04-16T23:50:12.370Z,83.78
2023-04-16T23:52:38.863Z,84.16
2023-04-16T23:55:05.688Z,83.73
2023-04-16T23:57:32.169Z,83.70
2023-04-16T23:59:58.627Z,83.96
